sensor_id;sensor_type;location;lat;lon;timestamp;P1;durP1;ratioP1;P2;durP2;ratioP2
54899;SDS011;40801;41.924;25.562;2022-08-01T00:00:18;14.50;;;13.40;;
54899;SDS011;40801;41.924;25.562;2022-08-01T00:02:43;13.52;;;12.63;;
54899;SDS011;40801;41.924;25.562;2022-08-01T00:05:09;13.85;;;12.85;;
54899;SDS011;40801;41.924;25.562;2022-08-01T00:07:35;13.18;;;12.18;;
54899;SDS011;40801;41.924;25.562;2022-08-01T00:10:05;13.07;;;12.23;;
54899;SDS011;40801;41.924;25.562;2022-08-01T00:12:41;14.05;;;13.02;;
54899;SDS011;40801;41.924;25.562;2022-08-01T00:15:08;13.75;;;12.75;;
54899;SDS011;40801;41.924;25.562;2022-08-01T00:17:35;13.30;;;12.40;;
54899;SDS011;40801;41.924;25.562;2022-08-01T00:20:01;14.07;;;13.07;;
54899;SDS011;40801;41.924;25.562;2022-08-01T00:22:30;13.95;;;12.95;;
54899;SDS011;40801;41.924;25.562;2022-08-01T00:24:56;13.80;;;12.75;;
54899;SDS011;40801;41.924;25.562;2022-08-01T00:27:21;13.43;;;12.40;;
54899;SDS011;40801;41.924;25.562;2022-08-01T00:29:46;13.38;;;12.38;;
54899;SDS011;40801;41.924;25.562;2022-08-01T00:32:12;13.68;;;12.68;;
54899;SDS011;40801;41.924;25.562;2022-08-01T00:34:37;14.07;;;13.07;;
54899;SDS011;40801;41.924;25.562;2022-08-01T00:37:03;14.15;;;13.07;;
54899;SDS011;40801;41.924;25.562;2022-08-01T00:39:28;13.38;;;12.48;;
54899;SDS011;40801;41.924;25.562;2022-08-01T00:41:53;14.45;;;13.35;;
54899;SDS011;40801;41.924;25.562;2022-08-01T00:44:19;14.35;;;13.30;;
54899;SDS011;40801;41.924;25.562;2022-08-01T00:46:44;14.13;;;13.00;;
54899;SDS011;40801;41.924;25.562;2022-08-01T00:49:09;13.93;;;12.93;;
54899;SDS011;40801;41.924;25.562;2022-08-01T00:51:35;14.32;;;13.23;;
54899;SDS011;40801;41.924;25.562;2022-08-01T00:54:00;14.60;;;13.57;;
54899;SDS011;40801;41.924;25.562;2022-08-01T00:56:26;15.00;;;13.90;;
54899;SDS011;40801;41.924;25.562;2022-08-01T00:58:53;13.57;;;12.57;;
54899;SDS011;40801;41.924;25.562;2022-08-01T01:01:20;15.07;;;13.88;;
54899;SDS011;40801;41.924;25.562;2022-08-01T01:03:47;14.23;;;13.13;;
54899;SDS011;40801;41.924;25.562;2022-08-01T01:09:37;14.75;;;13.55;;
54899;SDS011;40801;41.924;25.562;2022-08-01T01:17:16;14.98;;;13.85;;
54899;SDS011;40801;41.924;25.562;2022-08-01T01:19:45;13.77;;;12.88;;
54899;SDS011;40801;41.924;25.562;2022-08-01T01:22:26;14.52;;;13.60;;
54899;SDS011;40801;41.924;25.562;2022-08-01T01:30:25;14.50;;;13.38;;
54899;SDS011;40801;41.924;25.562;2022-08-01T01:32:55;15.55;;;14.35;;
54899;SDS011;40801;41.924;25.562;2022-08-01T01:35:25;14.95;;;13.93;;
54899;SDS011;40801;41.924;25.562;2022-08-01T01:38:00;15.13;;;13.93;;
54899;SDS011;40801;41.924;25.562;2022-08-01T01:40:29;14.00;;;13.07;;
54899;SDS011;40801;41.924;25.562;2022-08-01T01:42:56;14.82;;;13.73;;
54899;SDS011;40801;41.924;25.562;2022-08-01T01:45:25;14.55;;;13.55;;
54899;SDS011;40801;41.924;25.562;2022-08-01T01:47:52;14.75;;;13.75;;
54899;SDS011;40801;41.924;25.562;2022-08-01T01:50:22;13.68;;;12.77;;
54899;SDS011;40801;41.924;25.562;2022-08-01T01:52:49;13.40;;;12.30;;
54899;SDS011;40801;41.924;25.562;2022-08-01T01:55:15;13.05;;;12.15;;
54899;SDS011;40801;41.924;25.562;2022-08-01T01:57:43;13.93;;;12.60;;
54899;SDS011;40801;41.924;25.562;2022-08-01T02:00:10;13.45;;;12.55;;
54899;SDS011;40801;41.924;25.562;2022-08-01T02:02:37;13.38;;;12.32;;
54899;SDS011;40801;41.924;25.562;2022-08-01T02:05:05;13.18;;;12.38;;
54899;SDS011;40801;41.924;25.562;2022-08-01T02:07:32;12.55;;;11.50;;
54899;SDS011;40801;41.924;25.562;2022-08-01T02:09:59;12.60;;;11.90;;
54899;SDS011;40801;41.924;25.562;2022-08-01T02:12:27;12.85;;;12.02;;
54899;SDS011;40801;41.924;25.562;2022-08-01T02:17:21;11.85;;;11.15;;
54899;SDS011;40801;41.924;25.562;2022-08-01T02:19:49;12.02;;;11.00;;
54899;SDS011;40801;41.924;25.562;2022-08-01T02:22:25;12.50;;;11.80;;
54899;SDS011;40801;41.924;25.562;2022-08-01T02:27:43;11.90;;;11.20;;
54899;SDS011;40801;41.924;25.562;2022-08-01T02:30:12;12.07;;;11.38;;
54899;SDS011;40801;41.924;25.562;2022-08-01T02:32:41;12.40;;;11.55;;
54899;SDS011;40801;41.924;25.562;2022-08-01T02:35:16;11.65;;;11.02;;
54899;SDS011;40801;41.924;25.562;2022-08-01T02:37:46;13.50;;;12.60;;
54899;SDS011;40801;41.924;25.562;2022-08-01T02:40:13;12.00;;;11.30;;
54899;SDS011;40801;41.924;25.562;2022-08-01T02:42:43;12.30;;;11.60;;
54899;SDS011;40801;41.924;25.562;2022-08-01T02:45:12;11.05;;;10.45;;
54899;SDS011;40801;41.924;25.562;2022-08-01T02:47:38;11.82;;;11.13;;
54899;SDS011;40801;41.924;25.562;2022-08-01T02:50:07;11.50;;;10.67;;
54899;SDS011;40801;41.924;25.562;2022-08-01T02:52:36;12.10;;;11.30;;
54899;SDS011;40801;41.924;25.562;2022-08-01T02:55:03;13.02;;;12.32;;
54899;SDS011;40801;41.924;25.562;2022-08-01T02:57:30;12.38;;;11.60;;
54899;SDS011;40801;41.924;25.562;2022-08-01T02:59:57;12.23;;;11.63;;
54899;SDS011;40801;41.924;25.562;2022-08-01T03:02:24;11.82;;;11.02;;
54899;SDS011;40801;41.924;25.562;2022-08-01T03:04:51;11.52;;;10.82;;
54899;SDS011;40801;41.924;25.562;2022-08-01T03:07:18;12.30;;;11.60;;
54899;SDS011;40801;41.924;25.562;2022-08-01T03:09:45;12.07;;;11.27;;
54899;SDS011;40801;41.924;25.562;2022-08-01T03:12:17;12.80;;;11.90;;
54899;SDS011;40801;41.924;25.562;2022-08-01T03:14:47;12.38;;;11.30;;
54899;SDS011;40801;41.924;25.562;2022-08-01T03:17:14;11.05;;;10.45;;
54899;SDS011;40801;41.924;25.562;2022-08-01T03:19:41;11.65;;;10.95;;
54899;SDS011;40801;41.924;25.562;2022-08-01T03:22:09;11.68;;;11.07;;
54899;SDS011;40801;41.924;25.562;2022-08-01T03:24:38;10.55;;;9.95;;
54899;SDS011;40801;41.924;25.562;2022-08-01T03:27:05;11.50;;;10.65;;
54899;SDS011;40801;41.924;25.562;2022-08-01T03:29:32;11.57;;;10.77;;
54899;SDS011;40801;41.924;25.562;2022-08-01T03:31:59;11.32;;;10.68;;
54899;SDS011;40801;41.924;25.562;2022-08-01T03:34:26;11.50;;;10.90;;
54899;SDS011;40801;41.924;25.562;2022-08-01T03:36:56;11.45;;;10.75;;
54899;SDS011;40801;41.924;25.562;2022-08-01T03:39:28;11.52;;;10.82;;
54899;SDS011;40801;41.924;25.562;2022-08-01T03:41:59;10.88;;;10.27;;
54899;SDS011;40801;41.924;25.562;2022-08-01T03:44:30;11.10;;;10.50;;
54899;SDS011;40801;41.924;25.562;2022-08-01T03:47:04;10.52;;;9.95;;
54899;SDS011;40801;41.924;25.562;2022-08-01T03:49:32;10.65;;;9.90;;
54899;SDS011;40801;41.924;25.562;2022-08-01T03:52:03;10.75;;;9.57;;
54899;SDS011;40801;41.924;25.562;2022-08-01T03:54:32;10.85;;;10.13;;
54899;SDS011;40801;41.924;25.562;2022-08-01T03:57:00;10.07;;;9.48;;
54899;SDS011;40801;41.924;25.562;2022-08-01T03:59:27;10.93;;;10.05;;
54899;SDS011;40801;41.924;25.562;2022-08-01T04:01:54;10.50;;;9.73;;
54899;SDS011;40801;41.924;25.562;2022-08-01T04:04:21;11.02;;;10.32;;
54899;SDS011;40801;41.924;25.562;2022-08-01T04:06:48;10.23;;;9.70;;
54899;SDS011;40801;41.924;25.562;2022-08-01T04:09:18;10.73;;;10.13;;
54899;SDS011;40801;41.924;25.562;2022-08-01T04:11:44;10.55;;;9.95;;
54899;SDS011;40801;41.924;25.562;2022-08-01T04:14:09;10.25;;;9.75;;
54899;SDS011;40801;41.924;25.562;2022-08-01T04:16:35;10.60;;;10.07;;
54899;SDS011;40801;41.924;25.562;2022-08-01T04:19:00;10.45;;;9.85;;
54899;SDS011;40801;41.924;25.562;2022-08-01T04:21:26;9.32;;;8.80;;
54899;SDS011;40801;41.924;25.562;2022-08-01T04:23:54;10.27;;;9.57;;
54899;SDS011;40801;41.924;25.562;2022-08-01T04:26:23;9.38;;;8.80;;
54899;SDS011;40801;41.924;25.562;2022-08-01T04:28:50;9.38;;;8.88;;
54899;SDS011;40801;41.924;25.562;2022-08-01T04:31:17;9.88;;;9.18;;
54899;SDS011;40801;41.924;25.562;2022-08-01T04:33:46;9.50;;;8.95;;
54899;SDS011;40801;41.924;25.562;2022-08-01T04:36:14;9.93;;;9.32;;
54899;SDS011;40801;41.924;25.562;2022-08-01T04:38:45;9.73;;;8.80;;
54899;SDS011;40801;41.924;25.562;2022-08-01T04:41:13;8.77;;;8.27;;
54899;SDS011;40801;41.924;25.562;2022-08-01T04:43:40;9.60;;;8.93;;
54899;SDS011;40801;41.924;25.562;2022-08-01T04:46:07;8.95;;;8.43;;
54899;SDS011;40801;41.924;25.562;2022-08-01T04:48:37;8.82;;;8.32;;
54899;SDS011;40801;41.924;25.562;2022-08-01T04:51:04;9.13;;;8.52;;
54899;SDS011;40801;41.924;25.562;2022-08-01T04:53:35;8.55;;;7.95;;
54899;SDS011;40801;41.924;25.562;2022-08-01T04:56:01;7.70;;;7.28;;
54899;SDS011;40801;41.924;25.562;2022-08-01T04:58:26;7.85;;;7.30;;
54899;SDS011;40801;41.924;25.562;2022-08-01T05:00:52;8.85;;;8.20;;
54899;SDS011;40801;41.924;25.562;2022-08-01T05:03:17;7.10;;;6.65;;
54899;SDS011;40801;41.924;25.562;2022-08-01T05:05:43;7.07;;;6.57;;
54899;SDS011;40801;41.924;25.562;2022-08-01T05:08:08;8.23;;;7.53;;
54899;SDS011;40801;41.924;25.562;2022-08-01T05:10:34;6.90;;;6.50;;
54899;SDS011;40801;41.924;25.562;2022-08-01T05:13:00;6.40;;;6.20;;
54899;SDS011;40801;41.924;25.562;2022-08-01T05:15:25;7.28;;;6.88;;
54899;SDS011;40801;41.924;25.562;2022-08-01T05:17:51;7.63;;;6.72;;
54899;SDS011;40801;41.924;25.562;2022-08-01T05:20:17;7.43;;;6.78;;
54899;SDS011;40801;41.924;25.562;2022-08-01T05:22:42;9.25;;;8.70;;
54899;SDS011;40801;41.924;25.562;2022-08-01T05:25:08;7.15;;;6.75;;
54899;SDS011;40801;41.924;25.562;2022-08-01T05:27:33;6.88;;;6.45;;
54899;SDS011;40801;41.924;25.562;2022-08-01T05:30:04;6.30;;;6.03;;
54899;SDS011;40801;41.924;25.562;2022-08-01T05:32:31;6.32;;;5.97;;
54899;SDS011;40801;41.924;25.562;2022-08-01T05:34:57;6.05;;;5.65;;
54899;SDS011;40801;41.924;25.562;2022-08-01T05:37:22;6.07;;;5.78;;
54899;SDS011;40801;41.924;25.562;2022-08-01T05:39:48;7.55;;;6.97;;
54899;SDS011;40801;41.924;25.562;2022-08-01T05:42:13;6.00;;;5.63;;
54899;SDS011;40801;41.924;25.562;2022-08-01T05:44:39;6.90;;;6.57;;
54899;SDS011;40801;41.924;25.562;2022-08-01T05:47:04;6.43;;;5.95;;
54899;SDS011;40801;41.924;25.562;2022-08-01T05:49:29;6.25;;;5.65;;
54899;SDS011;40801;41.924;25.562;2022-08-01T05:51:55;5.70;;;5.10;;
54899;SDS011;40801;41.924;25.562;2022-08-01T05:54:20;6.05;;;5.63;;
54899;SDS011;40801;41.924;25.562;2022-08-01T05:56:46;7.00;;;6.50;;
54899;SDS011;40801;41.924;25.562;2022-08-01T05:59:11;6.20;;;5.78;;
54899;SDS011;40801;41.924;25.562;2022-08-01T06:01:36;5.88;;;5.35;;
54899;SDS011;40801;41.924;25.562;2022-08-01T06:04:02;5.35;;;4.95;;
54899;SDS011;40801;41.924;25.562;2022-08-01T06:06:27;5.78;;;5.40;;
54899;SDS011;40801;41.924;25.562;2022-08-01T06:08:53;5.90;;;5.60;;
54899;SDS011;40801;41.924;25.562;2022-08-01T06:11:18;5.93;;;5.53;;
54899;SDS011;40801;41.924;25.562;2022-08-01T06:13:44;5.68;;;5.28;;
54899;SDS011;40801;41.924;25.562;2022-08-01T06:16:09;5.75;;;5.30;;
54899;SDS011;40801;41.924;25.562;2022-08-01T06:18:35;6.38;;;5.93;;
54899;SDS011;40801;41.924;25.562;2022-08-01T06:21:00;5.63;;;5.30;;
54899;SDS011;40801;41.924;25.562;2022-08-01T06:23:25;5.85;;;5.43;;
54899;SDS011;40801;41.924;25.562;2022-08-01T06:25:54;6.15;;;5.68;;
54899;SDS011;40801;41.924;25.562;2022-08-01T06:28:20;4.85;;;4.50;;
54899;SDS011;40801;41.924;25.562;2022-08-01T06:30:46;6.05;;;5.65;;
54899;SDS011;40801;41.924;25.562;2022-08-01T06:33:12;5.03;;;4.72;;
54899;SDS011;40801;41.924;25.562;2022-08-01T06:35:37;7.07;;;5.10;;
54899;SDS011;40801;41.924;25.562;2022-08-01T06:38:03;5.28;;;4.97;;
54899;SDS011;40801;41.924;25.562;2022-08-01T06:40:28;5.97;;;5.43;;
54899;SDS011;40801;41.924;25.562;2022-08-01T06:42:53;6.50;;;5.18;;
54899;SDS011;40801;41.924;25.562;2022-08-01T06:45:19;5.85;;;5.05;;
54899;SDS011;40801;41.924;25.562;2022-08-01T06:47:47;4.55;;;4.35;;
54899;SDS011;40801;41.924;25.562;2022-08-01T06:50:13;5.25;;;4.88;;
54899;SDS011;40801;41.924;25.562;2022-08-01T06:52:39;5.40;;;4.88;;
54899;SDS011;40801;41.924;25.562;2022-08-01T06:55:05;4.63;;;4.30;;
54899;SDS011;40801;41.924;25.562;2022-08-01T06:57:31;4.95;;;4.43;;
54899;SDS011;40801;41.924;25.562;2022-08-01T06:59:57;4.53;;;4.22;;
54899;SDS011;40801;41.924;25.562;2022-08-01T07:02:32;4.80;;;4.40;;
54899;SDS011;40801;41.924;25.562;2022-08-01T07:04:57;8.82;;;4.45;;
54899;SDS011;40801;41.924;25.562;2022-08-01T07:07:25;4.70;;;4.50;;
54899;SDS011;40801;41.924;25.562;2022-08-01T07:09:51;4.70;;;4.30;;
54899;SDS011;40801;41.924;25.562;2022-08-01T07:12:17;5.00;;;4.60;;
54899;SDS011;40801;41.924;25.562;2022-08-01T07:14:42;4.38;;;4.03;;
54899;SDS011;40801;41.924;25.562;2022-08-01T07:17:07;4.13;;;3.90;;
54899;SDS011;40801;41.924;25.562;2022-08-01T07:19:33;5.13;;;4.57;;
54899;SDS011;40801;41.924;25.562;2022-08-01T07:21:58;4.30;;;3.78;;
54899;SDS011;40801;41.924;25.562;2022-08-01T07:24:24;5.25;;;4.78;;
54899;SDS011;40801;41.924;25.562;2022-08-01T07:26:49;4.80;;;4.60;;
54899;SDS011;40801;41.924;25.562;2022-08-01T07:29:15;4.38;;;4.15;;
54899;SDS011;40801;41.924;25.562;2022-08-01T07:31:40;4.60;;;4.30;;
54899;SDS011;40801;41.924;25.562;2022-08-01T07:34:06;4.95;;;4.40;;
54899;SDS011;40801;41.924;25.562;2022-08-01T07:36:32;5.18;;;4.00;;
54899;SDS011;40801;41.924;25.562;2022-08-01T07:38:57;4.97;;;4.65;;
54899;SDS011;40801;41.924;25.562;2022-08-01T07:41:22;5.10;;;4.60;;
54899;SDS011;40801;41.924;25.562;2022-08-01T07:43:48;4.85;;;4.35;;
54899;SDS011;40801;41.924;25.562;2022-08-01T07:46:14;4.57;;;4.38;;
54899;SDS011;40801;41.924;25.562;2022-08-01T07:48:40;4.72;;;4.35;;
54899;SDS011;40801;41.924;25.562;2022-08-01T07:51:06;4.65;;;4.35;;
54899;SDS011;40801;41.924;25.562;2022-08-01T07:53:33;4.28;;;4.07;;
54899;SDS011;40801;41.924;25.562;2022-08-01T07:55:58;5.05;;;4.47;;
54899;SDS011;40801;41.924;25.562;2022-08-01T07:58:24;4.60;;;4.30;;
54899;SDS011;40801;41.924;25.562;2022-08-01T08:00:50;4.10;;;3.90;;
54899;SDS011;40801;41.924;25.562;2022-08-01T08:03:15;4.32;;;3.97;;
54899;SDS011;40801;41.924;25.562;2022-08-01T08:05:40;4.68;;;4.30;;
54899;SDS011;40801;41.924;25.562;2022-08-01T08:08:07;4.57;;;4.28;;
54899;SDS011;40801;41.924;25.562;2022-08-01T08:10:33;5.38;;;4.25;;
54899;SDS011;40801;41.924;25.562;2022-08-01T08:12:59;3.97;;;3.78;;
54899;SDS011;40801;41.924;25.562;2022-08-01T08:15:26;4.70;;;4.30;;
54899;SDS011;40801;41.924;25.562;2022-08-01T08:17:52;4.88;;;4.45;;
54899;SDS011;40801;41.924;25.562;2022-08-01T08:20:17;4.50;;;4.30;;
54899;SDS011;40801;41.924;25.562;2022-08-01T08:22:43;5.10;;;4.65;;
54899;SDS011;40801;41.924;25.562;2022-08-01T08:25:08;5.38;;;4.85;;
54899;SDS011;40801;41.924;25.562;2022-08-01T08:27:34;4.18;;;3.97;;
54899;SDS011;40801;41.924;25.562;2022-08-01T08:30:01;4.35;;;3.60;;
54899;SDS011;40801;41.924;25.562;2022-08-01T08:32:27;3.75;;;3.45;;
54899;SDS011;40801;41.924;25.562;2022-08-01T08:34:52;5.03;;;4.30;;
54899;SDS011;40801;41.924;25.562;2022-08-01T08:37:18;3.60;;;3.30;;
54899;SDS011;40801;41.924;25.562;2022-08-01T08:39:43;3.92;;;3.47;;
54899;SDS011;40801;41.924;25.562;2022-08-01T08:42:12;4.13;;;3.85;;
54899;SDS011;40801;41.924;25.562;2022-08-01T08:44:38;3.97;;;3.58;;
54899;SDS011;40801;41.924;25.562;2022-08-01T08:47:05;6.13;;;4.43;;
54899;SDS011;40801;41.924;25.562;2022-08-01T08:49:32;4.45;;;4.15;;
54899;SDS011;40801;41.924;25.562;2022-08-01T08:51:59;4.30;;;4.03;;
54899;SDS011;40801;41.924;25.562;2022-08-01T08:54:25;3.72;;;3.20;;
54899;SDS011;40801;41.924;25.562;2022-08-01T08:56:52;3.72;;;3.38;;
54899;SDS011;40801;41.924;25.562;2022-08-01T08:59:19;4.40;;;3.67;;
54899;SDS011;40801;41.924;25.562;2022-08-01T09:01:45;3.50;;;3.40;;
54899;SDS011;40801;41.924;25.562;2022-08-01T09:04:11;4.22;;;3.92;;
54899;SDS011;40801;41.924;25.562;2022-08-01T09:06:37;4.10;;;3.72;;
54899;SDS011;40801;41.924;25.562;2022-08-01T09:09:03;4.20;;;3.80;;
54899;SDS011;40801;41.924;25.562;2022-08-01T09:11:31;4.13;;;3.78;;
54899;SDS011;40801;41.924;25.562;2022-08-01T09:14:03;4.07;;;3.78;;
54899;SDS011;40801;41.924;25.562;2022-08-01T09:16:47;5.75;;;5.22;;
54899;SDS011;40801;41.924;25.562;2022-08-01T09:19:34;3.88;;;3.67;;
54899;SDS011;40801;41.924;25.562;2022-08-01T09:22:11;6.10;;;3.47;;
54899;SDS011;40801;41.924;25.562;2022-08-01T09:24:38;3.60;;;3.28;;
54899;SDS011;40801;41.924;25.562;2022-08-01T09:27:18;5.63;;;2.97;;
54899;SDS011;40801;41.924;25.562;2022-08-01T09:29:45;3.75;;;3.50;;
54899;SDS011;40801;41.924;25.562;2022-08-01T09:32:11;4.03;;;3.67;;
54899;SDS011;40801;41.924;25.562;2022-08-01T09:34:36;3.40;;;3.20;;
54899;SDS011;40801;41.924;25.562;2022-08-01T09:37:02;4.22;;;3.55;;
54899;SDS011;40801;41.924;25.562;2022-08-01T09:39:34;4.13;;;3.17;;
54899;SDS011;40801;41.924;25.562;2022-08-01T09:42:17;4.05;;;3.75;;
54899;SDS011;40801;41.924;25.562;2022-08-01T09:44:51;5.63;;;3.13;;
54899;SDS011;40801;41.924;25.562;2022-08-01T09:47:18;12.45;;;11.45;;
54899;SDS011;40801;41.924;25.562;2022-08-01T09:49:46;4.22;;;3.10;;
54899;SDS011;40801;41.924;25.562;2022-08-01T09:52:20;3.13;;;2.72;;
54899;SDS011;40801;41.924;25.562;2022-08-01T09:54:55;3.33;;;3.03;;
54899;SDS011;40801;41.924;25.562;2022-08-01T09:57:23;4.10;;;3.47;;
54899;SDS011;40801;41.924;25.562;2022-08-01T09:59:50;3.58;;;3.45;;
54899;SDS011;40801;41.924;25.562;2022-08-01T10:04:54;3.35;;;2.83;;
54899;SDS011;40801;41.924;25.562;2022-08-01T10:07:20;5.05;;;3.22;;
54899;SDS011;40801;41.924;25.562;2022-08-01T10:09:47;2.72;;;2.53;;
54899;SDS011;40801;41.924;25.562;2022-08-01T10:12:14;3.47;;;2.70;;
54899;SDS011;40801;41.924;25.562;2022-08-01T10:14:42;3.15;;;3.05;;
54899;SDS011;40801;41.924;25.562;2022-08-01T10:17:13;3.38;;;2.83;;
54899;SDS011;40801;41.924;25.562;2022-08-01T10:19:40;5.07;;;2.97;;
54899;SDS011;40801;41.924;25.562;2022-08-01T10:22:07;3.20;;;2.90;;
54899;SDS011;40801;41.924;25.562;2022-08-01T10:24:36;2.60;;;2.50;;
54899;SDS011;40801;41.924;25.562;2022-08-01T10:27:06;3.88;;;2.90;;
54899;SDS011;40801;41.924;25.562;2022-08-01T10:29:40;3.17;;;2.97;;
54899;SDS011;40801;41.924;25.562;2022-08-01T10:32:28;4.47;;;3.33;;
54899;SDS011;40801;41.924;25.562;2022-08-01T10:34:58;3.42;;;2.95;;
54899;SDS011;40801;41.924;25.562;2022-08-01T10:37:25;4.57;;;3.22;;
54899;SDS011;40801;41.924;25.562;2022-08-01T10:39:51;3.08;;;2.75;;
54899;SDS011;40801;41.924;25.562;2022-08-01T10:42:18;3.35;;;2.95;;
54899;SDS011;40801;41.924;25.562;2022-08-01T10:44:44;3.13;;;2.92;;
54899;SDS011;40801;41.924;25.562;2022-08-01T10:47:13;3.03;;;2.63;;
54899;SDS011;40801;41.924;25.562;2022-08-01T10:49:43;2.70;;;2.50;;
54899;SDS011;40801;41.924;25.562;2022-08-01T10:52:16;3.03;;;2.90;;
54899;SDS011;40801;41.924;25.562;2022-08-01T10:54:42;2.65;;;2.50;;
54899;SDS011;40801;41.924;25.562;2022-08-01T10:57:08;2.80;;;2.65;;
54899;SDS011;40801;41.924;25.562;2022-08-01T10:59:35;2.80;;;2.70;;
54899;SDS011;40801;41.924;25.562;2022-08-01T11:02:11;2.65;;;2.40;;
54899;SDS011;40801;41.924;25.562;2022-08-01T11:04:58;3.92;;;2.90;;
54899;SDS011;40801;41.924;25.562;2022-08-01T11:07:43;3.03;;;2.58;;
54899;SDS011;40801;41.924;25.562;2022-08-01T11:10:24;3.25;;;2.95;;
54899;SDS011;40801;41.924;25.562;2022-08-01T11:12:55;3.30;;;3.20;;
54899;SDS011;40801;41.924;25.562;2022-08-01T11:15:21;2.75;;;2.60;;
54899;SDS011;40801;41.924;25.562;2022-08-01T11:17:51;3.30;;;2.75;;
54899;SDS011;40801;41.924;25.562;2022-08-01T11:20:18;2.58;;;2.45;;
54899;SDS011;40801;41.924;25.562;2022-08-01T11:26:11;3.70;;;3.47;;
54899;SDS011;40801;41.924;25.562;2022-08-01T11:33:16;3.17;;;2.97;;
54899;SDS011;40801;41.924;25.562;2022-08-01T11:38:42;3.22;;;3.00;;
54899;SDS011;40801;41.924;25.562;2022-08-01T11:54:29;2.83;;;2.58;;
54899;SDS011;40801;41.924;25.562;2022-08-01T11:56:57;3.50;;;2.92;;
54899;SDS011;40801;41.924;25.562;2022-08-01T11:59:25;3.28;;;3.08;;
54899;SDS011;40801;41.924;25.562;2022-08-01T12:01:51;3.95;;;3.53;;
54899;SDS011;40801;41.924;25.562;2022-08-01T12:04:17;3.20;;;3.05;;
54899;SDS011;40801;41.924;25.562;2022-08-01T12:06:42;2.95;;;2.60;;
54899;SDS011;40801;41.924;25.562;2022-08-01T12:09:15;3.38;;;2.95;;
54899;SDS011;40801;41.924;25.562;2022-08-01T12:11:45;3.08;;;2.97;;
54899;SDS011;40801;41.924;25.562;2022-08-01T12:14:20;2.85;;;2.65;;
54899;SDS011;40801;41.924;25.562;2022-08-01T12:16:52;4.53;;;3.00;;
54899;SDS011;40801;41.924;25.562;2022-08-01T12:19:19;2.78;;;2.67;;
54899;SDS011;40801;41.924;25.562;2022-08-01T12:22:04;2.70;;;2.60;;
54899;SDS011;40801;41.924;25.562;2022-08-01T12:24:34;3.08;;;2.95;;
54899;SDS011;40801;41.924;25.562;2022-08-01T12:27:00;3.08;;;2.95;;
54899;SDS011;40801;41.924;25.562;2022-08-01T12:29:33;6.78;;;3.75;;
54899;SDS011;40801;41.924;25.562;2022-08-01T12:31:59;4.25;;;3.67;;
54899;SDS011;40801;41.924;25.562;2022-08-01T12:34:25;2.83;;;2.72;;
54899;SDS011;40801;41.924;25.562;2022-08-01T12:36:58;3.22;;;3.03;;
54899;SDS011;40801;41.924;25.562;2022-08-01T12:39:32;3.10;;;2.60;;
54899;SDS011;40801;41.924;25.562;2022-08-01T12:41:58;3.05;;;2.80;;
54899;SDS011;40801;41.924;25.562;2022-08-01T12:44:24;2.65;;;2.55;;
54899;SDS011;40801;41.924;25.562;2022-08-01T12:46:50;3.03;;;2.83;;
54899;SDS011;40801;41.924;25.562;2022-08-01T12:49:16;3.67;;;3.47;;
54899;SDS011;40801;41.924;25.562;2022-08-01T12:51:42;2.97;;;2.88;;
54899;SDS011;40801;41.924;25.562;2022-08-01T12:54:07;2.50;;;2.35;;
54899;SDS011;40801;41.924;25.562;2022-08-01T12:56:35;5.03;;;3.20;;
54899;SDS011;40801;41.924;25.562;2022-08-01T12:59:01;3.35;;;3.25;;
54899;SDS011;40801;41.924;25.562;2022-08-01T13:01:27;3.83;;;3.35;;
54899;SDS011;40801;41.924;25.562;2022-08-01T13:04:00;4.97;;;2.90;;
54899;SDS011;40801;41.924;25.562;2022-08-01T13:06:29;2.88;;;2.67;;
54899;SDS011;40801;41.924;25.562;2022-08-01T13:08:55;2.80;;;2.50;;
54899;SDS011;40801;41.924;25.562;2022-08-01T13:11:30;3.33;;;3.13;;
54899;SDS011;40801;41.924;25.562;2022-08-01T13:13:56;2.70;;;2.60;;
54899;SDS011;40801;41.924;25.562;2022-08-01T13:16:23;3.40;;;3.10;;
54899;SDS011;40801;41.924;25.562;2022-08-01T13:18:50;2.67;;;2.53;;
54899;SDS011;40801;41.924;25.562;2022-08-01T13:24:00;3.63;;;3.42;;
54899;SDS011;40801;41.924;25.562;2022-08-01T13:26:43;4.03;;;3.63;;
54899;SDS011;40801;41.924;25.562;2022-08-01T13:29:10;2.58;;;2.47;;
54899;SDS011;40801;41.924;25.562;2022-08-01T13:31:37;3.20;;;3.00;;
54899;SDS011;40801;41.924;25.562;2022-08-01T13:34:03;2.33;;;2.22;;
54899;SDS011;40801;41.924;25.562;2022-08-01T13:36:29;3.25;;;3.15;;
54899;SDS011;40801;41.924;25.562;2022-08-01T13:38:56;2.60;;;2.50;;
54899;SDS011;40801;41.924;25.562;2022-08-01T13:41:45;3.08;;;2.88;;
54899;SDS011;40801;41.924;25.562;2022-08-01T13:44:11;2.90;;;2.80;;
54899;SDS011;40801;41.924;25.562;2022-08-01T13:46:37;3.05;;;2.78;;
54899;SDS011;40801;41.924;25.562;2022-08-01T13:49:03;3.17;;;2.97;;
54899;SDS011;40801;41.924;25.562;2022-08-01T13:51:30;4.40;;;4.00;;
54899;SDS011;40801;41.924;25.562;2022-08-01T13:53:56;3.38;;;3.00;;
54899;SDS011;40801;41.924;25.562;2022-08-01T13:56:21;3.05;;;2.88;;
54899;SDS011;40801;41.924;25.562;2022-08-01T13:58:47;3.25;;;2.95;;
54899;SDS011;40801;41.924;25.562;2022-08-01T14:01:13;2.72;;;2.60;;
54899;SDS011;40801;41.924;25.562;2022-08-01T14:03:38;2.97;;;2.85;;
54899;SDS011;40801;41.924;25.562;2022-08-01T14:06:03;3.40;;;3.20;;
54899;SDS011;40801;41.924;25.562;2022-08-01T14:08:29;2.92;;;2.67;;
54899;SDS011;40801;41.924;25.562;2022-08-01T14:10:55;3.60;;;3.50;;
54899;SDS011;40801;41.924;25.562;2022-08-01T14:13:23;3.30;;;3.15;;
54899;SDS011;40801;41.924;25.562;2022-08-01T14:15:52;3.50;;;3.30;;
54899;SDS011;40801;41.924;25.562;2022-08-01T14:18:18;3.30;;;3.10;;
54899;SDS011;40801;41.924;25.562;2022-08-01T14:20:43;3.88;;;2.92;;
54899;SDS011;40801;41.924;25.562;2022-08-01T14:23:09;4.35;;;3.95;;
54899;SDS011;40801;41.924;25.562;2022-08-01T14:25:39;3.47;;;3.28;;
54899;SDS011;40801;41.924;25.562;2022-08-01T14:28:06;3.13;;;2.92;;
54899;SDS011;40801;41.924;25.562;2022-08-01T14:30:32;8.52;;;4.38;;
54899;SDS011;40801;41.924;25.562;2022-08-01T14:32:58;3.78;;;3.38;;
54899;SDS011;40801;41.924;25.562;2022-08-01T14:35:24;4.10;;;3.80;;
54899;SDS011;40801;41.924;25.562;2022-08-01T14:37:50;3.67;;;3.45;;
54899;SDS011;40801;41.924;25.562;2022-08-01T14:40:15;3.60;;;3.40;;
54899;SDS011;40801;41.924;25.562;2022-08-01T14:42:41;3.45;;;3.22;;
54899;SDS011;40801;41.924;25.562;2022-08-01T14:45:09;3.53;;;3.33;;
54899;SDS011;40801;41.924;25.562;2022-08-01T14:47:36;4.38;;;3.97;;
54899;SDS011;40801;41.924;25.562;2022-08-01T14:50:06;3.60;;;3.40;;
54899;SDS011;40801;41.924;25.562;2022-08-01T14:52:33;3.05;;;2.95;;
54899;SDS011;40801;41.924;25.562;2022-08-01T14:55:00;8.55;;;5.55;;
54899;SDS011;40801;41.924;25.562;2022-08-01T14:57:26;3.47;;;3.17;;
54899;SDS011;40801;41.924;25.562;2022-08-01T14:59:51;3.90;;;3.60;;
54899;SDS011;40801;41.924;25.562;2022-08-01T15:02:17;4.20;;;3.95;;
54899;SDS011;40801;41.924;25.562;2022-08-01T15:04:44;4.57;;;4.28;;
54899;SDS011;40801;41.924;25.562;2022-08-01T15:07:10;4.20;;;3.92;;
54899;SDS011;40801;41.924;25.562;2022-08-01T15:09:36;4.70;;;4.40;;
54899;SDS011;40801;41.924;25.562;2022-08-01T15:12:01;5.20;;;4.70;;
54899;SDS011;40801;41.924;25.562;2022-08-01T15:14:27;5.10;;;3.83;;
54899;SDS011;40801;41.924;25.562;2022-08-01T15:17:10;4.13;;;3.53;;
54899;SDS011;40801;41.924;25.562;2022-08-01T15:19:36;4.30;;;4.07;;